createdAt,value
2017-10-17T00:01:32.306Z,22.00
2017-10-17T00:03:58.907Z,17.93
2017-10-17T00:06:25.547Z,19.30
2017-10-17T00:08:52.227Z,22.33
2017-10-17T00:11:18.858Z,18.13
2017-10-17T00:13:45.475Z,25.53
2017-10-17T00:16:12.198Z,21.77
2017-10-17T00:18:38.875Z,25.30
2017-10-17T00:21:05.505Z,21.80
2017-10-17T00:23:32.187Z,19.37
2017-10-17T00:25:58.795Z,23.70
2017-10-17T00:28:25.478Z,21.23
2017-10-17T00:30:52.131Z,24.30
2017-10-17T00:33:18.759Z,20.27
2017-10-17T00:35:46.202Z,19.47
2017-10-17T00:38:12.838Z,18.50
2017-10-17T00:40:39.530Z,22.23
2017-10-17T00:43:06.177Z,29.37
2017-10-17T00:45:32.846Z,23.53
2017-10-17T00:47:59.479Z,18.03
2017-10-17T00:50:26.089Z,18.93
2017-10-17T00:52:52.713Z,24.23
2017-10-17T00:55:19.361Z,21.30
2017-10-17T00:57:46.055Z,20.23
2017-10-17T01:00:12.685Z,23.17
2017-10-17T01:02:39.471Z,18.07
2017-10-17T01:05:06.167Z,30.63
2017-10-17T01:07:32.798Z,26.60
2017-10-17T01:09:59.483Z,23.30
2017-10-17T01:12:26.181Z,21.57
2017-10-17T01:14:52.794Z,15.27
2017-10-17T01:17:19.490Z,22.13
2017-10-17T01:19:46.153Z,23.83
2017-10-17T01:22:12.826Z,20.97
2017-10-17T01:24:39.523Z,18.37
2017-10-17T01:27:06.221Z,21.00
2017-10-17T01:29:32.858Z,30.03
2017-10-17T01:31:59.468Z,25.27
2017-10-17T01:34:26.107Z,17.63
2017-10-17T01:36:52.769Z,19.97
2017-10-17T01:39:19.414Z,22.97
2017-10-17T01:41:46.098Z,21.37
2017-10-17T01:44:14.577Z,18.10
2017-10-17T01:46:45.911Z,22.13
2017-10-17T01:49:13.453Z,20.77
2017-10-17T01:51:40.065Z,24.07
2017-10-17T01:54:23.525Z,17.73
2017-10-17T01:56:50.170Z,24.00
2017-10-17T01:59:18.658Z,25.60
2017-10-17T02:01:45.330Z,19.00
2017-10-17T02:04:12.015Z,19.67
2017-10-17T02:06:38.711Z,20.00
2017-10-17T02:09:05.348Z,18.43
2017-10-17T02:11:32.039Z,19.37
2017-10-17T02:13:58.678Z,19.97
2017-10-17T02:16:25.290Z,29.43
2017-10-17T02:18:57.818Z,18.97
2017-10-17T02:21:24.440Z,21.70
2017-10-17T02:23:51.074Z,24.13
2017-10-17T02:26:18.390Z,20.43
2017-10-17T02:28:46.934Z,18.23
2017-10-17T02:31:13.581Z,21.77
2017-10-17T02:33:40.203Z,28.50
2017-10-17T02:36:06.894Z,26.73
2017-10-17T02:38:33.575Z,20.30
2017-10-17T02:41:04.042Z,26.07
2017-10-17T02:43:30.651Z,21.77
2017-10-17T02:45:57.323Z,24.73
2017-10-17T02:48:24.823Z,20.43
2017-10-17T02:50:51.490Z,17.03
2017-10-17T02:53:18.206Z,17.37
2017-10-17T02:55:44.844Z,24.43
2017-10-17T02:58:13.206Z,18.07
2017-10-17T03:00:39.839Z,22.20
2017-10-17T03:03:06.483Z,20.53
2017-10-17T03:05:33.107Z,17.40
2017-10-17T03:08:02.619Z,17.10
2017-10-17T03:10:29.353Z,19.10
2017-10-17T03:12:55.962Z,17.30
2017-10-17T03:15:27.197Z,17.70
2017-10-17T03:17:53.818Z,31.73
2017-10-17T03:20:20.461Z,32.13
2017-10-17T03:22:47.100Z,18.10
2017-10-17T03:25:13.728Z,23.50
2017-10-17T03:27:40.361Z,20.40
2017-10-17T03:30:07.027Z,21.40
2017-10-17T03:32:33.727Z,20.10
2017-10-17T03:35:11.185Z,15.60
2017-10-17T03:37:38.006Z,22.70
2017-10-17T03:40:05.474Z,22.90
2017-10-17T03:42:32.099Z,19.30
2017-10-17T03:44:59.395Z,14.73
2017-10-17T03:47:41.594Z,20.63
2017-10-17T03:50:10.932Z,19.13
2017-10-17T03:52:48.309Z,21.27
2017-10-17T03:55:14.946Z,19.40
2017-10-17T03:57:51.493Z,16.60
2017-10-17T04:00:18.110Z,19.83
2017-10-17T04:02:46.661Z,20.20
2017-10-17T04:05:14.170Z,17.60
2017-10-17T04:07:43.718Z,26.70
2017-10-17T04:10:11.156Z,22.43
2017-10-17T04:12:37.783Z,21.53
2017-10-17T04:15:08.189Z,21.20
2017-10-17T04:17:38.612Z,20.27
2017-10-17T04:20:18.087Z,21.20
2017-10-17T04:22:46.558Z,19.53
2017-10-17T04:25:18.934Z,19.00
2017-10-17T04:27:51.374Z,22.27
2017-10-17T04:30:37.754Z,21.90
2017-10-17T04:33:10.270Z,20.33
2017-10-17T04:35:39.667Z,23.80
2017-10-17T04:38:06.293Z,24.60
2017-10-17T04:40:32.906Z,18.67
2017-10-17T04:43:16.157Z,19.30
2017-10-17T04:45:42.763Z,18.00
2017-10-17T04:48:19.309Z,19.53
2017-10-17T04:50:47.788Z,19.63
2017-10-17T04:53:29.299Z,22.47
2017-10-17T04:56:10.815Z,19.73
2017-10-17T04:58:41.282Z,21.50
2017-10-17T05:01:07.934Z,23.10
2017-10-17T05:03:34.574Z,22.20
2017-10-17T05:06:06.925Z,33.33
2017-10-17T05:08:39.320Z,18.67
2017-10-17T05:11:07.762Z,19.07
2017-10-17T05:13:37.130Z,14.83
2017-10-17T05:19:08.018Z,15.70
2017-10-17T05:21:35.277Z,19.40
2017-10-17T05:24:05.630Z,20.73
2017-10-17T05:26:32.279Z,46.00
2017-10-17T05:28:58.915Z,16.27
2017-10-17T05:31:25.530Z,23.73
2017-10-17T05:33:55.929Z,24.03
2017-10-17T05:36:23.336Z,19.83
2017-10-17T05:38:50.007Z,24.90
2017-10-17T05:41:16.714Z,27.50
2017-10-17T05:44:00.054Z,23.80
2017-10-17T05:46:26.685Z,26.47
2017-10-17T05:48:53.330Z,24.93
2017-10-17T05:51:24.586Z,25.90
2017-10-17T05:53:51.218Z,22.43
2017-10-17T05:56:17.830Z,23.53
2017-10-17T05:58:44.498Z,18.57
2017-10-17T06:01:11.131Z,20.20
2017-10-17T06:03:37.775Z,24.47
2017-10-17T06:06:04.439Z,20.47
2017-10-17T06:08:31.067Z,21.60
2017-10-17T06:10:57.670Z,25.00
2017-10-17T06:13:24.322Z,21.80
2017-10-17T06:15:50.954Z,19.13
2017-10-17T06:18:17.563Z,22.00
2017-10-17T06:20:44.228Z,19.80
2017-10-17T06:23:10.841Z,18.53
2017-10-17T06:25:37.463Z,22.73
2017-10-17T06:28:04.098Z,22.93
2017-10-17T06:30:30.750Z,21.80
2017-10-17T06:32:57.374Z,25.67
2017-10-17T06:35:23.998Z,34.47
2017-10-17T06:37:50.619Z,24.83
2017-10-17T06:40:17.262Z,24.63
2017-10-17T06:42:43.881Z,26.50
2017-10-17T06:45:10.531Z,26.23
2017-10-17T06:47:37.149Z,28.83
2017-10-17T06:50:03.767Z,25.70
2017-10-17T06:52:30.398Z,29.37
2017-10-17T06:54:57.035Z,23.70
2017-10-17T06:57:23.669Z,26.50
2017-10-17T06:59:50.294Z,26.03
2017-10-17T07:02:16.925Z,27.87
2017-10-17T07:04:43.556Z,21.27
2017-10-17T07:07:10.175Z,24.77
2017-10-17T07:09:36.833Z,36.13
2017-10-17T07:12:03.448Z,28.33
2017-10-17T07:14:30.110Z,22.87
2017-10-17T07:16:56.739Z,24.63
2017-10-17T07:19:23.377Z,24.10
2017-10-17T07:21:50.024Z,24.90
2017-10-17T07:24:16.662Z,21.47
2017-10-17T07:26:43.307Z,26.03
2017-10-17T07:29:09.968Z,30.40
2017-10-17T07:31:36.615Z,26.53
2017-10-17T07:34:03.242Z,24.80
2017-10-17T07:36:29.882Z,24.43
2017-10-17T07:38:56.547Z,28.60
2017-10-17T07:41:23.183Z,25.03
2017-10-17T07:43:49.807Z,28.47
2017-10-17T07:46:16.439Z,26.27
2017-10-17T07:48:43.063Z,24.40
2017-10-17T07:51:09.694Z,32.17
2017-10-17T07:53:36.305Z,32.37
2017-10-17T07:56:02.925Z,30.53
2017-10-17T07:58:29.566Z,28.70
2017-10-17T08:00:56.169Z,24.67
2017-10-17T08:03:22.798Z,32.60
2017-10-17T08:05:49.427Z,32.13
2017-10-17T08:08:16.119Z,25.30
2017-10-17T08:10:42.789Z,29.47
2017-10-17T08:13:09.439Z,32.13
2017-10-17T08:15:36.078Z,23.63
2017-10-17T08:18:02.693Z,28.53
2017-10-17T08:20:29.331Z,27.90
2017-10-17T08:22:56.318Z,24.43
2017-10-17T08:25:22.935Z,27.07
2017-10-17T08:27:49.580Z,24.83
2017-10-17T08:30:16.198Z,30.10
2017-10-17T08:32:42.840Z,25.60
2017-10-17T08:35:09.483Z,25.10
2017-10-17T08:37:36.109Z,29.53
2017-10-17T08:40:02.763Z,27.60
2017-10-17T08:42:29.371Z,23.20
2017-10-17T08:44:55.996Z,25.97
2017-10-17T08:47:22.642Z,37.47
2017-10-17T08:49:49.275Z,26.60
2017-10-17T08:52:15.883Z,35.10
2017-10-17T08:54:42.528Z,33.40
2017-10-17T08:57:09.147Z,28.37
2017-10-17T08:59:35.766Z,32.23
2017-10-17T09:02:02.432Z,27.00
2017-10-17T09:04:29.054Z,25.37
2017-10-17T09:06:55.654Z,29.67
2017-10-17T09:09:22.298Z,26.90
2017-10-17T09:11:48.947Z,28.47
2017-10-17T09:14:15.585Z,31.53
2017-10-17T09:16:42.216Z,27.43
2017-10-17T09:19:08.876Z,25.13
2017-10-17T09:21:35.529Z,28.77
2017-10-17T09:24:02.176Z,22.90
2017-10-17T09:26:28.786Z,25.80
2017-10-17T09:28:55.395Z,26.07
2017-10-17T09:31:22.023Z,24.87
2017-10-17T09:33:48.690Z,32.40
2017-10-17T09:36:15.322Z,25.30
2017-10-17T09:38:41.937Z,30.57
2017-10-17T09:41:08.583Z,23.37
2017-10-17T09:43:35.211Z,24.83
2017-10-17T09:46:01.865Z,26.73
2017-10-17T09:48:28.500Z,30.23
2017-10-17T09:50:55.147Z,35.40
2017-10-17T09:53:21.779Z,29.07
2017-10-17T09:55:48.396Z,44.87
2017-10-17T09:58:15.041Z,33.27
2017-10-17T10:00:41.667Z,28.23
2017-10-17T10:03:08.327Z,24.20
2017-10-17T10:05:34.936Z,26.93
2017-10-17T10:08:01.590Z,31.07
2017-10-17T10:10:28.260Z,27.27
2017-10-17T10:12:55.002Z,32.63
2017-10-17T10:15:21.903Z,24.13
2017-10-17T10:17:48.555Z,34.87
2017-10-17T10:20:15.209Z,29.97
2017-10-17T10:22:41.862Z,33.67
2017-10-17T10:25:08.485Z,27.93
2017-10-17T10:27:36.022Z,34.60
2017-10-17T10:30:02.706Z,31.30
2017-10-17T10:32:29.359Z,29.13
2017-10-17T10:34:55.995Z,29.00
2017-10-17T10:37:22.614Z,29.00
2017-10-17T10:39:49.242Z,26.33
2017-10-17T10:42:15.882Z,30.17
2017-10-17T10:44:42.536Z,29.70
2017-10-17T10:47:09.168Z,27.80
2017-10-17T10:49:35.814Z,38.47
2017-10-17T10:52:02.447Z,26.80
2017-10-17T10:54:29.086Z,30.00
2017-10-17T10:56:55.702Z,32.53
2017-10-17T10:59:22.382Z,42.10
2017-10-17T11:01:49.031Z,32.60
2017-10-17T11:04:15.667Z,34.13
2017-10-17T11:06:42.295Z,25.20
2017-10-17T11:09:08.961Z,25.70
2017-10-17T11:11:35.576Z,36.57
2017-10-17T11:14:02.217Z,30.63
2017-10-17T11:16:28.862Z,33.70
2017-10-17T11:18:55.491Z,33.93
2017-10-17T11:21:22.128Z,30.03
2017-10-17T11:23:48.741Z,27.60
2017-10-17T11:26:15.368Z,30.53
2017-10-17T11:28:41.987Z,30.53
2017-10-17T11:31:08.615Z,33.03
2017-10-17T11:33:35.235Z,38.80
2017-10-17T11:36:01.862Z,30.30
2017-10-17T11:38:28.506Z,38.77
2017-10-17T11:41:15.891Z,32.13
2017-10-17T11:43:48.280Z,42.97
2017-10-17T11:46:14.926Z,31.33
2017-10-17T11:48:41.564Z,34.50
2017-10-17T11:51:08.186Z,31.13
2017-10-17T11:53:34.824Z,30.83
2017-10-17T11:56:01.452Z,33.00
2017-10-17T11:58:28.096Z,32.17
2017-10-17T12:00:54.723Z,35.13
2017-10-17T12:03:21.368Z,35.73
2017-10-17T12:05:48.007Z,33.70
2017-10-17T12:08:14.636Z,35.13
2017-10-17T12:10:41.281Z,37.67
2017-10-17T12:13:07.902Z,38.53
2017-10-17T12:15:34.566Z,33.13
2017-10-17T12:18:01.186Z,39.70
2017-10-17T12:20:27.797Z,31.07
2017-10-17T12:22:54.422Z,41.97
2017-10-17T12:25:21.057Z,37.43
2017-10-17T12:27:47.694Z,36.33
2017-10-17T12:30:14.341Z,33.33
2017-10-17T12:32:40.962Z,35.00
2017-10-17T12:35:07.616Z,32.13
2017-10-17T12:37:34.279Z,35.00
2017-10-17T12:40:00.903Z,35.73
2017-10-17T12:42:27.549Z,35.53
2017-10-17T12:44:54.213Z,33.73
2017-10-17T12:47:20.815Z,26.43
2017-10-17T12:49:47.458Z,36.43
2017-10-17T12:52:14.086Z,36.13
2017-10-17T12:54:40.739Z,38.30
2017-10-17T12:57:07.378Z,38.33
2017-10-17T12:59:34.003Z,28.20
2017-10-17T13:02:00.667Z,32.57
2017-10-17T13:04:27.290Z,54.30
2017-10-17T13:06:53.919Z,34.10
2017-10-17T13:09:20.590Z,31.80
2017-10-17T13:11:47.239Z,34.03
2017-10-17T13:14:13.865Z,41.97
2017-10-17T13:16:40.506Z,38.30
2017-10-17T13:19:07.134Z,31.47
2017-10-17T13:21:33.786Z,36.17
2017-10-17T13:24:00.419Z,35.90
2017-10-17T13:26:27.057Z,36.27
2017-10-17T13:28:53.684Z,39.43
2017-10-17T13:31:20.335Z,37.93
2017-10-17T13:33:46.975Z,31.07
2017-10-17T13:36:13.615Z,40.27
2017-10-17T13:38:40.248Z,37.50
2017-10-17T13:41:06.880Z,33.47
2017-10-17T13:43:33.514Z,38.67
2017-10-17T13:46:00.143Z,42.03
2017-10-17T13:48:26.771Z,29.83
2017-10-17T13:50:53.407Z,35.10
2017-10-17T13:53:20.074Z,30.20
2017-10-17T13:55:46.694Z,32.40
2017-10-17T13:58:13.345Z,31.53
2017-10-17T14:00:39.988Z,35.47
2017-10-17T14:03:06.617Z,44.27
2017-10-17T14:05:33.259Z,33.83
2017-10-17T14:07:59.907Z,34.87
2017-10-17T14:10:26.521Z,27.23
2017-10-17T14:12:53.157Z,36.60
2017-10-17T14:15:19.784Z,36.87
2017-10-17T14:17:46.415Z,35.40
2017-10-17T14:20:13.031Z,34.87
2017-10-17T14:22:39.668Z,39.03
2017-10-17T14:25:06.290Z,32.13
2017-10-17T14:27:32.906Z,39.90
2017-10-17T14:29:59.616Z,34.17
2017-10-17T14:32:26.242Z,29.83
2017-10-17T14:34:52.874Z,37.77
2017-10-17T14:37:19.534Z,30.50
2017-10-17T14:39:46.170Z,29.60
2017-10-17T14:42:12.819Z,29.90
2017-10-17T14:44:39.433Z,29.70
2017-10-17T14:47:06.087Z,31.10
2017-10-17T14:49:32.735Z,32.10
2017-10-17T14:51:59.377Z,34.10
2017-10-17T14:54:26.016Z,33.63
2017-10-17T14:56:52.654Z,29.00
2017-10-17T14:59:19.351Z,38.40
2017-10-17T15:01:45.976Z,31.87
2017-10-17T15:04:12.587Z,32.53
2017-10-17T15:06:39.278Z,33.87
2017-10-17T15:09:05.898Z,33.07
2017-10-17T15:11:32.514Z,39.13
2017-10-17T15:13:59.140Z,37.00
2017-10-17T15:16:25.773Z,37.70
2017-10-17T15:18:52.408Z,36.60
2017-10-17T15:21:19.090Z,46.13
2017-10-17T15:23:45.739Z,27.60
2017-10-17T15:26:12.354Z,28.83
2017-10-17T15:28:39.005Z,34.70
2017-10-17T15:31:05.642Z,38.70
2017-10-17T15:33:32.286Z,34.93
2017-10-17T15:35:58.922Z,30.90
2017-10-17T15:38:25.547Z,28.90
2017-10-17T15:40:52.180Z,32.23
2017-10-17T15:43:18.818Z,35.50
2017-10-17T15:45:45.431Z,37.73
2017-10-17T15:48:12.043Z,33.03
2017-10-17T15:50:38.683Z,40.97
2017-10-17T15:53:05.323Z,42.97
2017-10-17T15:55:31.966Z,32.77
2017-10-17T15:57:58.626Z,34.93
2017-10-17T16:00:25.254Z,36.77
2017-10-17T16:02:51.893Z,45.93
2017-10-17T16:05:18.701Z,40.43
2017-10-17T16:07:45.359Z,41.87
2017-10-17T16:10:11.983Z,40.80
2017-10-17T16:12:38.615Z,40.77
2017-10-17T16:15:05.276Z,39.83
2017-10-17T16:17:31.909Z,39.67
2017-10-17T16:19:58.553Z,38.47
2017-10-17T16:22:25.182Z,32.87
2017-10-17T16:24:51.810Z,36.50
2017-10-17T16:27:18.450Z,38.63
2017-10-17T16:29:45.171Z,32.77
2017-10-17T16:32:11.805Z,33.10
2017-10-17T16:34:38.435Z,37.67
2017-10-17T16:37:05.079Z,39.37
2017-10-17T16:39:31.715Z,50.33
2017-10-17T16:41:58.367Z,36.00
2017-10-17T16:44:24.991Z,35.83
2017-10-17T16:46:51.602Z,40.17
2017-10-17T16:49:18.222Z,42.33
2017-10-17T16:51:44.862Z,39.13
2017-10-17T16:54:11.523Z,40.30
2017-10-17T16:56:38.147Z,35.07
2017-10-17T16:59:04.758Z,36.60
2017-10-17T17:01:31.413Z,35.93
2017-10-17T17:03:58.041Z,27.17
2017-10-17T17:06:24.683Z,42.33
2017-10-17T17:08:51.321Z,36.07
2017-10-17T17:11:17.969Z,35.47
2017-10-17T17:13:44.588Z,26.47
2017-10-17T17:16:11.211Z,28.93
2017-10-17T17:18:37.870Z,29.83
2017-10-17T17:21:04.485Z,31.43
2017-10-17T17:23:31.136Z,32.37
2017-10-17T17:25:57.763Z,40.67
2017-10-17T17:28:24.387Z,32.40
2017-10-17T17:30:51.034Z,39.30
2017-10-17T17:33:17.676Z,28.83
2017-10-17T17:35:44.338Z,31.70
2017-10-17T17:38:10.954Z,34.60
2017-10-17T17:40:37.585Z,33.37
2017-10-17T17:43:04.233Z,21.80
2017-10-17T17:45:31.229Z,24.23
2017-10-17T17:47:57.844Z,26.27
2017-10-17T17:50:24.498Z,25.50
2017-10-17T17:52:51.149Z,19.70
2017-10-17T17:55:17.831Z,25.33
2017-10-17T17:57:44.449Z,29.23
2017-10-17T18:00:11.092Z,27.00
2017-10-17T18:02:37.725Z,15.77
2017-10-17T18:05:04.387Z,33.10
2017-10-17T18:07:31.064Z,35.43
2017-10-17T18:09:57.754Z,33.07
2017-10-17T18:12:24.397Z,23.30
2017-10-17T18:14:51.007Z,22.33
2017-10-17T18:17:17.673Z,16.83
2017-10-17T18:19:44.299Z,17.13
2017-10-17T18:22:10.963Z,25.93
2017-10-17T18:24:37.588Z,38.37
2017-10-17T18:27:04.251Z,37.27
2017-10-17T18:29:30.861Z,48.70
2017-10-17T18:31:57.499Z,43.70
2017-10-17T18:34:24.151Z,31.43
2017-10-17T18:36:50.776Z,33.00
2017-10-17T18:39:17.407Z,42.20
2017-10-17T18:41:44.049Z,52.20
2017-10-17T18:44:10.688Z,69.63
2017-10-17T18:46:37.299Z,39.53
2017-10-17T18:49:03.954Z,26.53
2017-10-17T18:51:30.681Z,28.43
2017-10-17T18:53:57.336Z,31.40
2017-10-17T18:56:24.007Z,44.57
2017-10-17T18:58:50.650Z,50.40
2017-10-17T19:01:17.303Z,56.90
2017-10-17T19:03:43.949Z,50.63
2017-10-17T19:06:10.562Z,57.67
2017-10-17T19:08:37.197Z,41.07
2017-10-17T19:11:03.854Z,37.97
2017-10-17T19:13:30.487Z,38.70
2017-10-17T19:15:57.156Z,39.87
2017-10-17T19:18:23.804Z,44.97
2017-10-17T19:20:50.452Z,60.20
2017-10-17T19:23:17.083Z,45.87
2017-10-17T19:25:43.724Z,54.00
2017-10-17T19:28:10.374Z,49.30
2017-10-17T19:30:37.028Z,60.53
2017-10-17T19:33:03.675Z,50.97
2017-10-17T19:35:30.343Z,49.10
2017-10-17T19:37:57.007Z,56.83
2017-10-17T19:40:23.648Z,60.83
2017-10-17T19:42:50.272Z,68.40
2017-10-17T19:45:16.891Z,49.63
2017-10-17T19:47:43.557Z,56.83
2017-10-17T19:50:10.399Z,63.47
2017-10-17T19:52:37.049Z,71.40
2017-10-17T19:55:03.691Z,61.37
2017-10-17T19:57:30.371Z,54.47
2017-10-17T19:59:57.009Z,52.60
2017-10-17T20:02:23.650Z,51.13
2017-10-17T20:04:50.316Z,49.50
2017-10-17T20:07:16.962Z,50.40
2017-10-17T20:09:43.633Z,42.87
2017-10-17T20:12:10.863Z,50.97
2017-10-17T20:14:37.552Z,53.20
2017-10-17T20:17:04.189Z,51.67
2017-10-17T20:19:30.842Z,47.30
2017-10-17T20:21:57.500Z,46.20
2017-10-17T20:24:24.154Z,40.50
2017-10-17T20:26:50.794Z,40.33
2017-10-17T20:29:18.636Z,45.40
2017-10-17T20:31:45.263Z,43.47
2017-10-17T20:34:11.890Z,52.90
2017-10-17T20:36:38.533Z,47.13
2017-10-17T20:39:05.173Z,39.30
2017-10-17T20:41:31.806Z,43.13
2017-10-17T20:43:58.490Z,46.93
2017-10-17T20:46:25.102Z,44.87
2017-10-17T20:48:51.736Z,58.17
2017-10-17T20:51:18.382Z,48.00
2017-10-17T20:53:45.013Z,33.23
2017-10-17T20:56:11.638Z,28.40
2017-10-17T20:58:38.294Z,22.80
2017-10-17T21:01:04.931Z,31.37
2017-10-17T21:03:31.567Z,43.67
2017-10-17T21:05:58.199Z,31.17
2017-10-17T21:08:24.852Z,36.67
2017-10-17T21:10:51.472Z,23.13
2017-10-17T21:13:18.091Z,28.67
2017-10-17T21:15:44.741Z,25.20
2017-10-17T21:18:11.409Z,13.90
2017-10-17T21:20:38.031Z,30.77
2017-10-17T21:23:04.688Z,37.20
2017-10-17T21:25:31.318Z,40.57
2017-10-17T21:27:57.922Z,37.90
2017-10-17T21:30:24.562Z,41.70
2017-10-17T21:32:51.191Z,45.87
2017-10-17T21:35:17.846Z,36.37
2017-10-17T21:37:44.494Z,31.67
2017-10-17T21:40:11.144Z,33.60
2017-10-17T21:42:37.779Z,28.90
2017-10-17T21:45:04.395Z,39.03
2017-10-17T21:47:31.027Z,56.17
2017-10-17T21:49:57.667Z,44.23
2017-10-17T21:52:24.291Z,34.07
2017-10-17T21:54:50.906Z,35.83
2017-10-17T21:57:17.538Z,32.50
2017-10-17T21:59:44.168Z,37.80
2017-10-17T22:02:10.830Z,27.50
2017-10-17T22:04:37.478Z,29.37
2017-10-17T22:07:04.114Z,27.77
2017-10-17T22:09:30.739Z,25.13
2017-10-17T22:11:57.388Z,33.20
2017-10-17T22:14:24.030Z,33.83
2017-10-17T22:16:50.657Z,20.90
2017-10-17T22:19:17.295Z,20.80
2017-10-17T22:21:43.903Z,19.97
2017-10-17T22:24:10.563Z,15.53
2017-10-17T22:26:37.209Z,14.90
2017-10-17T22:29:03.847Z,16.97
2017-10-17T22:31:30.466Z,17.10
2017-10-17T22:33:57.090Z,25.23
2017-10-17T22:36:23.731Z,28.10
2017-10-17T22:38:50.369Z,27.70
2017-10-17T22:41:16.983Z,19.10
2017-10-17T22:43:43.612Z,23.80
2017-10-17T22:46:10.234Z,13.33
2017-10-17T22:48:37.103Z,23.07
2017-10-17T22:51:03.711Z,20.07
2017-10-17T22:53:30.347Z,24.27
2017-10-17T22:55:56.980Z,20.27
2017-10-17T22:58:23.623Z,19.30
2017-10-17T23:00:50.242Z,18.30
2017-10-17T23:03:16.863Z,28.63
2017-10-17T23:05:43.491Z,24.23
2017-10-17T23:08:10.110Z,28.83
2017-10-17T23:10:36.767Z,23.83
2017-10-17T23:13:03.419Z,24.50
2017-10-17T23:15:30.063Z,22.60
2017-10-17T23:18:02.606Z,19.63
2017-10-17T23:20:35.174Z,25.67
2017-10-17T23:23:01.802Z,27.40
2017-10-17T23:25:28.427Z,25.83
2017-10-17T23:27:55.038Z,30.20
2017-10-17T23:30:21.677Z,17.00
2017-10-17T23:32:48.294Z,17.70
2017-10-17T23:35:14.904Z,20.97
2017-10-17T23:37:41.535Z,28.70
2017-10-17T23:40:08.199Z,22.10
2017-10-17T23:42:34.819Z,27.20
2017-10-17T23:45:01.440Z,13.57
2017-10-17T23:47:28.088Z,18.33
2017-10-17T23:49:54.721Z,21.27
2017-10-17T23:52:21.329Z,30.20
2017-10-17T23:54:47.938Z,35.87
2017-10-17T23:57:14.594Z,39.70
2017-10-17T23:59:41.235Z,42.73
